sensor_id;sensor_type;location;lat;lon;timestamp;P1;durP1;ratioP1;P2;durP2;ratioP2
40314;SDS011;26021;45.640;11.302;2022-10-16T00:00:39;93.05;;;59.65;;
40314;SDS011;26021;45.640;11.302;2022-10-16T00:03:07;98.18;;;60.58;;
40314;SDS011;26021;45.640;11.302;2022-10-16T00:05:33;101.97;;;62.22;;
40314;SDS011;26021;45.640;11.302;2022-10-16T00:08:04;106.25;;;63.75;;
40314;SDS011;26021;45.640;11.302;2022-10-16T00:10:30;108.07;;;65.45;;
40314;SDS011;26021;45.640;11.302;2022-10-16T00:12:55;103.50;;;64.90;;
40314;SDS011;26021;45.640;11.302;2022-10-16T00:15:21;103.53;;;63.67;;
40314;SDS011;26021;45.640;11.302;2022-10-16T00:17:46;113.32;;;66.18;;
40314;SDS011;26021;45.640;11.302;2022-10-16T00:20:11;107.90;;;62.75;;
40314;SDS011;26021;45.640;11.302;2022-10-16T00:22:37;103.07;;;61.15;;
40314;SDS011;26021;45.640;11.302;2022-10-16T00:25:02;104.22;;;62.42;;
40314;SDS011;26021;45.640;11.302;2022-10-16T00:27:28;103.97;;;63.85;;
40314;SDS011;26021;45.640;11.302;2022-10-16T00:29:53;105.93;;;63.63;;
40314;SDS011;26021;45.640;11.302;2022-10-16T00:32:19;110.47;;;63.22;;
40314;SDS011;26021;45.640;11.302;2022-10-16T00:34:45;105.20;;;62.47;;
40314;SDS011;26021;45.640;11.302;2022-10-16T00:37:11;101.28;;;62.22;;
40314;SDS011;26021;45.640;11.302;2022-10-16T00:39:37;105.20;;;62.65;;
40314;SDS011;26021;45.640;11.302;2022-10-16T00:42:03;114.60;;;63.63;;
40314;SDS011;26021;45.640;11.302;2022-10-16T00:44:42;107.60;;;61.92;;
40314;SDS011;26021;45.640;11.302;2022-10-16T00:52:16;101.90;;;61.42;;
40314;SDS011;26021;45.640;11.302;2022-10-16T00:54:42;101.57;;;61.97;;
40314;SDS011;26021;45.640;11.302;2022-10-16T00:57:08;98.20;;;62.13;;
40314;SDS011;26021;45.640;11.302;2022-10-16T00:59:37;105.00;;;62.25;;
40314;SDS011;26021;45.640;11.302;2022-10-16T01:02:06;103.10;;;63.60;;
40314;SDS011;26021;45.640;11.302;2022-10-16T01:04:38;103.78;;;63.40;;
40314;SDS011;26021;45.640;11.302;2022-10-16T01:10:17;106.28;;;63.58;;
40314;SDS011;26021;45.640;11.302;2022-10-16T01:21:00;114.13;;;62.70;;
40314;SDS011;26021;45.640;11.302;2022-10-16T01:26:32;114.40;;;65.18;;
40314;SDS011;26021;45.640;11.302;2022-10-16T01:29:26;103.22;;;63.35;;
40314;SDS011;26021;45.640;11.302;2022-10-16T01:32:31;106.57;;;63.88;;
40314;SDS011;26021;45.640;11.302;2022-10-16T01:35:05;114.35;;;63.63;;
40314;SDS011;26021;45.640;11.302;2022-10-16T01:40:12;104.30;;;59.00;;
40314;SDS011;26021;45.640;11.302;2022-10-16T01:42:41;97.68;;;59.53;;
40314;SDS011;26021;45.640;11.302;2022-10-16T01:45:10;108.45;;;64.18;;
40314;SDS011;26021;45.640;11.302;2022-10-16T01:47:38;106.70;;;63.10;;
40314;SDS011;26021;45.640;11.302;2022-10-16T01:50:05;108.93;;;63.58;;
40314;SDS011;26021;45.640;11.302;2022-10-16T01:52:34;107.97;;;64.57;;
40314;SDS011;26021;45.640;11.302;2022-10-16T01:55:03;113.50;;;66.63;;
40314;SDS011;26021;45.640;11.302;2022-10-16T01:57:31;119.28;;;71.60;;
40314;SDS011;26021;45.640;11.302;2022-10-16T02:00:01;117.93;;;70.35;;
40314;SDS011;26021;45.640;11.302;2022-10-16T02:02:32;120.63;;;69.05;;
40314;SDS011;26021;45.640;11.302;2022-10-16T02:05:02;110.55;;;64.72;;
40314;SDS011;26021;45.640;11.302;2022-10-16T02:07:37;121.78;;;69.60;;
40314;SDS011;26021;45.640;11.302;2022-10-16T02:10:03;117.43;;;68.97;;
40314;SDS011;26021;45.640;11.302;2022-10-16T02:12:32;109.43;;;67.05;;
40314;SDS011;26021;45.640;11.302;2022-10-16T02:15:01;123.38;;;66.65;;
40314;SDS011;26021;45.640;11.302;2022-10-16T02:17:27;117.75;;;68.32;;
40314;SDS011;26021;45.640;11.302;2022-10-16T02:19:53;112.95;;;66.35;;
40314;SDS011;26021;45.640;11.302;2022-10-16T02:22:27;116.22;;;69.65;;
40314;SDS011;26021;45.640;11.302;2022-10-16T02:27:48;128.35;;;71.25;;
40314;SDS011;26021;45.640;11.302;2022-10-16T02:30:36;121.70;;;69.55;;
40314;SDS011;26021;45.640;11.302;2022-10-16T02:35:34;131.55;;;71.90;;
40314;SDS011;26021;45.640;11.302;2022-10-16T02:38:01;127.00;;;70.45;;
40314;SDS011;26021;45.640;11.302;2022-10-16T02:40:26;131.73;;;70.65;;
40314;SDS011;26021;45.640;11.302;2022-10-16T02:42:53;126.07;;;71.75;;
40314;SDS011;26021;45.640;11.302;2022-10-16T02:45:20;129.05;;;72.22;;
40314;SDS011;26021;45.640;11.302;2022-10-16T02:47:46;117.47;;;68.30;;
40314;SDS011;26021;45.640;11.302;2022-10-16T02:50:12;117.82;;;69.15;;
40314;SDS011;26021;45.640;11.302;2022-10-16T02:52:37;122.25;;;69.78;;
40314;SDS011;26021;45.640;11.302;2022-10-16T02:55:03;121.28;;;70.05;;
40314;SDS011;26021;45.640;11.302;2022-10-16T02:57:28;118.93;;;68.55;;
40314;SDS011;26021;45.640;11.302;2022-10-16T02:59:54;116.78;;;67.70;;
40314;SDS011;26021;45.640;11.302;2022-10-16T03:02:20;119.18;;;67.78;;
40314;SDS011;26021;45.640;11.302;2022-10-16T03:04:46;118.40;;;67.47;;
40314;SDS011;26021;45.640;11.302;2022-10-16T03:07:11;117.22;;;67.68;;
40314;SDS011;26021;45.640;11.302;2022-10-16T03:09:37;109.75;;;65.82;;
40314;SDS011;26021;45.640;11.302;2022-10-16T03:12:02;119.22;;;68.55;;
40314;SDS011;26021;45.640;11.302;2022-10-16T03:14:28;109.55;;;65.90;;
40314;SDS011;26021;45.640;11.302;2022-10-16T03:16:53;127.13;;;69.32;;
40314;SDS011;26021;45.640;11.302;2022-10-16T03:19:18;111.88;;;66.03;;
40314;SDS011;26021;45.640;11.302;2022-10-16T03:21:44;111.95;;;64.88;;
40314;SDS011;26021;45.640;11.302;2022-10-16T03:24:10;103.47;;;65.82;;
40314;SDS011;26021;45.640;11.302;2022-10-16T03:26:35;116.38;;;67.82;;
40314;SDS011;26021;45.640;11.302;2022-10-16T03:29:02;110.53;;;66.75;;
40314;SDS011;26021;45.640;11.302;2022-10-16T03:31:28;113.85;;;67.43;;
40314;SDS011;26021;45.640;11.302;2022-10-16T03:33:54;105.65;;;65.28;;
40314;SDS011;26021;45.640;11.302;2022-10-16T03:36:19;111.03;;;64.93;;
40314;SDS011;26021;45.640;11.302;2022-10-16T03:38:44;117.20;;;67.38;;
40314;SDS011;26021;45.640;11.302;2022-10-16T03:41:10;109.07;;;64.47;;
40314;SDS011;26021;45.640;11.302;2022-10-16T03:43:35;109.90;;;65.78;;
40314;SDS011;26021;45.640;11.302;2022-10-16T03:46:01;108.70;;;65.40;;
40314;SDS011;26021;45.640;11.302;2022-10-16T03:48:26;114.18;;;66.85;;
40314;SDS011;26021;45.640;11.302;2022-10-16T03:50:51;108.07;;;63.17;;
40314;SDS011;26021;45.640;11.302;2022-10-16T03:53:17;114.57;;;65.40;;
40314;SDS011;26021;45.640;11.302;2022-10-16T03:55:43;110.03;;;64.30;;
40314;SDS011;26021;45.640;11.302;2022-10-16T03:58:09;113.57;;;65.70;;
40314;SDS011;26021;45.640;11.302;2022-10-16T04:00:35;108.85;;;65.13;;
40314;SDS011;26021;45.640;11.302;2022-10-16T04:03:00;115.97;;;66.05;;
40314;SDS011;26021;45.640;11.302;2022-10-16T04:05:26;110.75;;;67.35;;
40314;SDS011;26021;45.640;11.302;2022-10-16T04:07:51;124.68;;;68.97;;
40314;SDS011;26021;45.640;11.302;2022-10-16T04:10:17;133.50;;;72.80;;
40314;SDS011;26021;45.640;11.302;2022-10-16T04:12:42;120.32;;;67.63;;
40314;SDS011;26021;45.640;11.302;2022-10-16T04:15:08;125.53;;;72.45;;
40314;SDS011;26021;45.640;11.302;2022-10-16T04:17:34;116.55;;;67.50;;
40314;SDS011;26021;45.640;11.302;2022-10-16T04:20:00;116.35;;;66.63;;
40314;SDS011;26021;45.640;11.302;2022-10-16T04:22:25;115.43;;;67.07;;
40314;SDS011;26021;45.640;11.302;2022-10-16T04:24:51;121.50;;;69.43;;
40314;SDS011;26021;45.640;11.302;2022-10-16T04:27:16;119.53;;;67.72;;
40314;SDS011;26021;45.640;11.302;2022-10-16T04:29:41;120.93;;;68.38;;
40314;SDS011;26021;45.640;11.302;2022-10-16T04:32:10;115.05;;;66.18;;
40314;SDS011;26021;45.640;11.302;2022-10-16T04:34:35;122.38;;;69.50;;
40314;SDS011;26021;45.640;11.302;2022-10-16T04:37:01;125.47;;;70.45;;
40314;SDS011;26021;45.640;11.302;2022-10-16T04:39:26;119.22;;;69.32;;
40314;SDS011;26021;45.640;11.302;2022-10-16T04:41:52;114.88;;;66.88;;
40314;SDS011;26021;45.640;11.302;2022-10-16T04:44:17;120.63;;;66.82;;
40314;SDS011;26021;45.640;11.302;2022-10-16T04:46:43;123.35;;;65.68;;
40314;SDS011;26021;45.640;11.302;2022-10-16T04:49:09;112.10;;;65.60;;
40314;SDS011;26021;45.640;11.302;2022-10-16T04:51:34;121.65;;;67.60;;
40314;SDS011;26021;45.640;11.302;2022-10-16T04:54:00;118.45;;;68.95;;
40314;SDS011;26021;45.640;11.302;2022-10-16T04:56:25;114.97;;;65.63;;
40314;SDS011;26021;45.640;11.302;2022-10-16T04:58:51;126.35;;;72.45;;
40314;SDS011;26021;45.640;11.302;2022-10-16T05:01:16;127.53;;;71.60;;
40314;SDS011;26021;45.640;11.302;2022-10-16T05:03:41;122.70;;;67.80;;
40314;SDS011;26021;45.640;11.302;2022-10-16T05:06:07;119.53;;;69.93;;
40314;SDS011;26021;45.640;11.302;2022-10-16T05:08:33;119.82;;;67.97;;
40314;SDS011;26021;45.640;11.302;2022-10-16T05:10:59;117.85;;;67.85;;
40314;SDS011;26021;45.640;11.302;2022-10-16T05:13:25;118.78;;;67.43;;
40314;SDS011;26021;45.640;11.302;2022-10-16T05:15:51;117.53;;;67.20;;
40314;SDS011;26021;45.640;11.302;2022-10-16T05:18:16;106.55;;;64.57;;
40314;SDS011;26021;45.640;11.302;2022-10-16T05:20:42;110.15;;;65.30;;
40314;SDS011;26021;45.640;11.302;2022-10-16T05:23:07;114.03;;;66.63;;
40314;SDS011;26021;45.640;11.302;2022-10-16T05:25:35;124.38;;;70.43;;
40314;SDS011;26021;45.640;11.302;2022-10-16T05:28:01;120.63;;;70.90;;
40314;SDS011;26021;45.640;11.302;2022-10-16T05:30:26;116.53;;;69.38;;
40314;SDS011;26021;45.640;11.302;2022-10-16T05:32:52;121.93;;;68.05;;
40314;SDS011;26021;45.640;11.302;2022-10-16T05:35:18;114.38;;;67.63;;
40314;SDS011;26021;45.640;11.302;2022-10-16T05:37:44;122.10;;;67.53;;
40314;SDS011;26021;45.640;11.302;2022-10-16T05:40:10;124.72;;;67.13;;
40314;SDS011;26021;45.640;11.302;2022-10-16T05:42:37;124.03;;;68.25;;
40314;SDS011;26021;45.640;11.302;2022-10-16T05:45:03;118.18;;;68.68;;
40314;SDS011;26021;45.640;11.302;2022-10-16T05:47:29;109.63;;;64.95;;
40314;SDS011;26021;45.640;11.302;2022-10-16T05:49:55;120.43;;;67.65;;
40314;SDS011;26021;45.640;11.302;2022-10-16T05:52:20;113.80;;;67.72;;
40314;SDS011;26021;45.640;11.302;2022-10-16T05:54:46;118.75;;;68.20;;
40314;SDS011;26021;45.640;11.302;2022-10-16T05:57:11;122.63;;;68.88;;
40314;SDS011;26021;45.640;11.302;2022-10-16T05:59:37;129.10;;;70.45;;
40314;SDS011;26021;45.640;11.302;2022-10-16T06:02:02;118.40;;;68.95;;
40314;SDS011;26021;45.640;11.302;2022-10-16T06:04:28;109.10;;;66.90;;
40314;SDS011;26021;45.640;11.302;2022-10-16T06:06:53;115.90;;;67.05;;
40314;SDS011;26021;45.640;11.302;2022-10-16T06:09:19;126.57;;;69.32;;
40314;SDS011;26021;45.640;11.302;2022-10-16T06:11:44;125.40;;;67.13;;
40314;SDS011;26021;45.640;11.302;2022-10-16T06:14:10;122.57;;;69.32;;
40314;SDS011;26021;45.640;11.302;2022-10-16T06:16:35;113.68;;;65.53;;
40314;SDS011;26021;45.640;11.302;2022-10-16T06:19:02;118.97;;;70.45;;
40314;SDS011;26021;45.640;11.302;2022-10-16T06:21:31;131.98;;;76.80;;
40314;SDS011;26021;45.640;11.302;2022-10-16T06:23:57;121.22;;;71.72;;
40314;SDS011;26021;45.640;11.302;2022-10-16T06:26:24;126.60;;;69.18;;
40314;SDS011;26021;45.640;11.302;2022-10-16T06:28:51;114.68;;;65.97;;
40314;SDS011;26021;45.640;11.302;2022-10-16T06:31:18;111.55;;;65.55;;
40314;SDS011;26021;45.640;11.302;2022-10-16T06:33:44;109.22;;;66.30;;
40314;SDS011;26021;45.640;11.302;2022-10-16T06:36:11;117.13;;;67.80;;
40314;SDS011;26021;45.640;11.302;2022-10-16T06:38:39;117.22;;;66.28;;
40314;SDS011;26021;45.640;11.302;2022-10-16T06:41:05;116.20;;;68.82;;
40314;SDS011;26021;45.640;11.302;2022-10-16T06:43:33;115.70;;;68.20;;
40314;SDS011;26021;45.640;11.302;2022-10-16T06:46:00;162.52;;;92.57;;
40314;SDS011;26021;45.640;11.302;2022-10-16T06:48:27;136.60;;;80.10;;
40314;SDS011;26021;45.640;11.302;2022-10-16T06:50:57;121.25;;;72.07;;
40314;SDS011;26021;45.640;11.302;2022-10-16T06:53:35;116.72;;;69.07;;
40314;SDS011;26021;45.640;11.302;2022-10-16T06:58:45;116.38;;;67.57;;
40314;SDS011;26021;45.640;11.302;2022-10-16T07:01:11;102.93;;;60.65;;
40314;SDS011;26021;45.640;11.302;2022-10-16T07:03:41;97.93;;;60.85;;
40314;SDS011;26021;45.640;11.302;2022-10-16T07:06:08;95.55;;;58.75;;
40314;SDS011;26021;45.640;11.302;2022-10-16T07:08:36;108.20;;;61.50;;
40314;SDS011;26021;45.640;11.302;2022-10-16T07:11:07;93.22;;;60.78;;
40314;SDS011;26021;45.640;11.302;2022-10-16T07:13:37;99.07;;;60.45;;
40314;SDS011;26021;45.640;11.302;2022-10-16T07:16:07;102.88;;;61.63;;
40314;SDS011;26021;45.640;11.302;2022-10-16T07:21:06;97.43;;;60.65;;
40314;SDS011;26021;45.640;11.302;2022-10-16T07:23:33;97.25;;;60.58;;
40314;SDS011;26021;45.640;11.302;2022-10-16T07:25:58;93.80;;;60.13;;
40314;SDS011;26021;45.640;11.302;2022-10-16T07:28:24;95.25;;;58.63;;
40314;SDS011;26021;45.640;11.302;2022-10-16T07:30:50;97.15;;;61.13;;
40314;SDS011;26021;45.640;11.302;2022-10-16T07:33:15;96.88;;;61.72;;
40314;SDS011;26021;45.640;11.302;2022-10-16T07:35:48;97.20;;;61.55;;
40314;SDS011;26021;45.640;11.302;2022-10-16T07:38:17;96.10;;;60.22;;
40314;SDS011;26021;45.640;11.302;2022-10-16T07:40:43;97.57;;;60.13;;
40314;SDS011;26021;45.640;11.302;2022-10-16T07:43:08;100.05;;;61.08;;
40314;SDS011;26021;45.640;11.302;2022-10-16T07:45:34;101.15;;;59.67;;
40314;SDS011;26021;45.640;11.302;2022-10-16T07:47:59;98.43;;;60.70;;
40314;SDS011;26021;45.640;11.302;2022-10-16T07:50:25;97.38;;;60.53;;
40314;SDS011;26021;45.640;11.302;2022-10-16T07:52:50;91.65;;;60.30;;
40314;SDS011;26021;45.640;11.302;2022-10-16T07:55:16;96.85;;;59.97;;
40314;SDS011;26021;45.640;11.302;2022-10-16T07:57:42;86.32;;;55.05;;
40314;SDS011;26021;45.640;11.302;2022-10-16T08:00:07;86.03;;;55.75;;
40314;SDS011;26021;45.640;11.302;2022-10-16T08:02:38;87.68;;;56.47;;
40314;SDS011;26021;45.640;11.302;2022-10-16T08:05:04;96.93;;;60.35;;
40314;SDS011;26021;45.640;11.302;2022-10-16T08:07:31;91.75;;;60.30;;
40314;SDS011;26021;45.640;11.302;2022-10-16T08:09:56;85.70;;;57.10;;
40314;SDS011;26021;45.640;11.302;2022-10-16T08:12:23;85.57;;;55.88;;
40314;SDS011;26021;45.640;11.302;2022-10-16T08:14:48;86.70;;;55.20;;
40314;SDS011;26021;45.640;11.302;2022-10-16T08:17:14;92.72;;;61.25;;
40314;SDS011;26021;45.640;11.302;2022-10-16T08:19:43;94.82;;;60.20;;
40314;SDS011;26021;45.640;11.302;2022-10-16T08:22:09;97.82;;;64.18;;
40314;SDS011;26021;45.640;11.302;2022-10-16T08:24:35;90.90;;;60.60;;
40314;SDS011;26021;45.640;11.302;2022-10-16T08:27:01;95.65;;;60.47;;
40314;SDS011;26021;45.640;11.302;2022-10-16T08:29:27;94.68;;;61.67;;
40314;SDS011;26021;45.640;11.302;2022-10-16T08:31:53;99.00;;;61.60;;
40314;SDS011;26021;45.640;11.302;2022-10-16T08:34:18;98.43;;;63.13;;
40314;SDS011;26021;45.640;11.302;2022-10-16T08:36:44;102.15;;;65.07;;
40314;SDS011;26021;45.640;11.302;2022-10-16T08:39:09;104.75;;;65.85;;
40314;SDS011;26021;45.640;11.302;2022-10-16T08:49:16;98.32;;;62.97;;
40314;SDS011;26021;45.640;11.302;2022-10-16T08:51:42;102.97;;;61.90;;
40314;SDS011;26021;45.640;11.302;2022-10-16T08:54:28;96.95;;;61.80;;
40314;SDS011;26021;45.640;11.302;2022-10-16T08:56:57;101.03;;;64.20;;
40314;SDS011;26021;45.640;11.302;2022-10-16T08:59:36;96.18;;;60.28;;
40314;SDS011;26021;45.640;11.302;2022-10-16T09:02:02;96.43;;;63.13;;
40314;SDS011;26021;45.640;11.302;2022-10-16T09:07:24;101.82;;;64.93;;
40314;SDS011;26021;45.640;11.302;2022-10-16T09:10:11;99.00;;;65.18;;
40314;SDS011;26021;45.640;11.302;2022-10-16T09:12:53;99.43;;;63.20;;
40314;SDS011;26021;45.640;11.302;2022-10-16T09:18:12;94.45;;;59.55;;
40314;SDS011;26021;45.640;11.302;2022-10-16T09:23:18;98.28;;;61.50;;
40314;SDS011;26021;45.640;11.302;2022-10-16T09:26:02;100.47;;;63.97;;
40314;SDS011;26021;45.640;11.302;2022-10-16T09:28:30;92.68;;;62.63;;
40314;SDS011;26021;45.640;11.302;2022-10-16T09:30:55;106.35;;;65.13;;
40314;SDS011;26021;45.640;11.302;2022-10-16T09:33:23;105.78;;;65.95;;
40314;SDS011;26021;45.640;11.302;2022-10-16T09:35:54;95.15;;;62.30;;
40314;SDS011;26021;45.640;11.302;2022-10-16T09:38:28;99.80;;;65.85;;
40314;SDS011;26021;45.640;11.302;2022-10-16T09:41:00;104.35;;;66.72;;
40314;SDS011;26021;45.640;11.302;2022-10-16T09:43:32;102.57;;;66.07;;
40314;SDS011;26021;45.640;11.302;2022-10-16T09:46:19;107.13;;;67.97;;
40314;SDS011;26021;45.640;11.302;2022-10-16T09:48:48;101.10;;;67.07;;
40314;SDS011;26021;45.640;11.302;2022-10-16T09:51:19;101.10;;;66.47;;
40314;SDS011;26021;45.640;11.302;2022-10-16T09:54:11;102.03;;;63.90;;
40314;SDS011;26021;45.640;11.302;2022-10-16T09:56:39;102.20;;;62.00;;
40314;SDS011;26021;45.640;11.302;2022-10-16T10:01:42;88.25;;;60.33;;
40314;SDS011;26021;45.640;11.302;2022-10-16T10:04:08;99.03;;;62.72;;
40314;SDS011;26021;45.640;11.302;2022-10-16T10:06:36;98.65;;;61.78;;
40314;SDS011;26021;45.640;11.302;2022-10-16T10:09:13;94.82;;;62.28;;
40314;SDS011;26021;45.640;11.302;2022-10-16T10:14:22;95.68;;;61.90;;
40314;SDS011;26021;45.640;11.302;2022-10-16T10:16:48;89.25;;;61.00;;
40314;SDS011;26021;45.640;11.302;2022-10-16T10:19:15;95.03;;;60.90;;
40314;SDS011;26021;45.640;11.302;2022-10-16T10:21:46;95.35;;;61.92;;
40314;SDS011;26021;45.640;11.302;2022-10-16T10:24:13;94.80;;;60.83;;
40314;SDS011;26021;45.640;11.302;2022-10-16T10:26:41;92.65;;;64.05;;
40314;SDS011;26021;45.640;11.302;2022-10-16T10:29:21;96.32;;;61.40;;
40314;SDS011;26021;45.640;11.302;2022-10-16T10:32:19;99.03;;;64.47;;
40314;SDS011;26021;45.640;11.302;2022-10-16T10:38:00;91.85;;;60.05;;
40314;SDS011;26021;45.640;11.302;2022-10-16T10:40:39;96.65;;;59.97;;
40314;SDS011;26021;45.640;11.302;2022-10-16T10:43:59;95.32;;;62.22;;
40314;SDS011;26021;45.640;11.302;2022-10-16T10:46:18;85.88;;;58.38;;
40314;SDS011;26021;45.640;11.302;2022-10-16T10:51:35;94.38;;;63.30;;
40314;SDS011;26021;45.640;11.302;2022-10-16T10:54:19;93.35;;;61.08;;
40314;SDS011;26021;45.640;11.302;2022-10-16T10:57:09;91.43;;;57.70;;
40314;SDS011;26021;45.640;11.302;2022-10-16T11:02:37;90.45;;;60.65;;
40314;SDS011;26021;45.640;11.302;2022-10-16T11:07:51;93.50;;;60.58;;
40314;SDS011;26021;45.640;11.302;2022-10-16T11:10:23;87.70;;;60.17;;
40314;SDS011;26021;45.640;11.302;2022-10-16T11:12:57;91.25;;;60.55;;
40314;SDS011;26021;45.640;11.302;2022-10-16T11:15:41;93.70;;;59.63;;
40314;SDS011;26021;45.640;11.302;2022-10-16T11:18:22;84.43;;;56.05;;
40314;SDS011;26021;45.640;11.302;2022-10-16T11:21:00;92.63;;;56.55;;
40314;SDS011;26021;45.640;11.302;2022-10-16T11:23:50;90.38;;;58.28;;
40314;SDS011;26021;45.640;11.302;2022-10-16T11:26:23;95.55;;;60.35;;
40314;SDS011;26021;45.640;11.302;2022-10-16T11:28:53;88.47;;;61.67;;
40314;SDS011;26021;45.640;11.302;2022-10-16T11:31:55;90.97;;;61.63;;
40314;SDS011;26021;45.640;11.302;2022-10-16T11:39:46;89.27;;;60.10;;
40314;SDS011;26021;45.640;11.302;2022-10-16T11:42:22;93.75;;;61.58;;
40314;SDS011;26021;45.640;11.302;2022-10-16T11:56:19;90.07;;;62.35;;
40314;SDS011;26021;45.640;11.302;2022-10-16T12:01:42;95.85;;;61.95;;
40314;SDS011;26021;45.640;11.302;2022-10-16T12:04:33;83.20;;;57.00;;
40314;SDS011;26021;45.640;11.302;2022-10-16T12:07:21;87.60;;;59.33;;
40314;SDS011;26021;45.640;11.302;2022-10-16T12:09:52;89.45;;;61.08;;
40314;SDS011;26021;45.640;11.302;2022-10-16T12:15:00;97.50;;;60.50;;
40314;SDS011;26021;45.640;11.302;2022-10-16T12:17:35;85.50;;;59.08;;
40314;SDS011;26021;45.640;11.302;2022-10-16T12:22:40;92.55;;;61.08;;
40314;SDS011;26021;45.640;11.302;2022-10-16T12:25:28;89.57;;;60.38;;
40314;SDS011;26021;45.640;11.302;2022-10-16T12:30:29;91.72;;;61.80;;
40314;SDS011;26021;45.640;11.302;2022-10-16T12:32:58;81.40;;;56.70;;
40314;SDS011;26021;45.640;11.302;2022-10-16T12:35:30;92.45;;;60.63;;
40314;SDS011;26021;45.640;11.302;2022-10-16T12:38:05;84.78;;;57.83;;
40314;SDS011;26021;45.640;11.302;2022-10-16T12:40:34;89.88;;;61.20;;
40314;SDS011;26021;45.640;11.302;2022-10-16T12:44:03;80.43;;;56.33;;
40314;SDS011;26021;45.640;11.302;2022-10-16T12:46:01;83.75;;;56.67;;
40314;SDS011;26021;45.640;11.302;2022-10-16T12:48:52;88.82;;;60.63;;
40314;SDS011;26021;45.640;11.302;2022-10-16T12:54:14;87.35;;;60.72;;
40314;SDS011;26021;45.640;11.302;2022-10-16T13:11:10;73.65;;;52.67;;
40314;SDS011;26021;45.640;11.302;2022-10-16T13:16:45;82.57;;;56.80;;
40314;SDS011;26021;45.640;11.302;2022-10-16T13:22:11;77.32;;;55.35;;
40314;SDS011;26021;45.640;11.302;2022-10-16T13:27:46;75.40;;;53.53;;
40314;SDS011;26021;45.640;11.302;2022-10-16T13:30:22;85.18;;;54.30;;
40314;SDS011;26021;45.640;11.302;2022-10-16T13:33:15;78.30;;;55.22;;
40314;SDS011;26021;45.640;11.302;2022-10-16T13:35:50;72.68;;;52.35;;
40314;SDS011;26021;45.640;11.302;2022-10-16T13:38:18;73.05;;;52.25;;
40314;SDS011;26021;45.640;11.302;2022-10-16T13:40:58;79.18;;;55.15;;
40314;SDS011;26021;45.640;11.302;2022-10-16T13:43:35;79.93;;;54.80;;
40314;SDS011;26021;45.640;11.302;2022-10-16T13:46:27;75.43;;;53.80;;
40314;SDS011;26021;45.640;11.302;2022-10-16T13:48:58;82.22;;;57.20;;
40314;SDS011;26021;45.640;11.302;2022-10-16T13:51:29;83.20;;;61.40;;
40314;SDS011;26021;45.640;11.302;2022-10-16T13:53:55;84.00;;;56.63;;
40314;SDS011;26021;45.640;11.302;2022-10-16T13:56:22;81.50;;;56.17;;
40314;SDS011;26021;45.640;11.302;2022-10-16T13:58:58;75.18;;;51.58;;
40314;SDS011;26021;45.640;11.302;2022-10-16T14:01:29;77.22;;;53.60;;
40314;SDS011;26021;45.640;11.302;2022-10-16T14:04:04;80.07;;;55.72;;
40314;SDS011;26021;45.640;11.302;2022-10-16T14:06:32;81.78;;;57.58;;
40314;SDS011;26021;45.640;11.302;2022-10-16T14:11:26;116.03;;;90.22;;
40314;SDS011;26021;45.640;11.302;2022-10-16T14:13:52;90.35;;;62.00;;
40314;SDS011;26021;45.640;11.302;2022-10-16T14:16:29;97.15;;;65.32;;
40314;SDS011;26021;45.640;11.302;2022-10-16T14:19:00;93.10;;;65.15;;
40314;SDS011;26021;45.640;11.302;2022-10-16T14:21:30;91.83;;;63.70;;
40314;SDS011;26021;45.640;11.302;2022-10-16T14:23:57;86.30;;;63.13;;
40314;SDS011;26021;45.640;11.302;2022-10-16T14:26:23;86.95;;;61.78;;
40314;SDS011;26021;45.640;11.302;2022-10-16T14:31:37;98.53;;;69.70;;
40314;SDS011;26021;45.640;11.302;2022-10-16T14:34:04;88.22;;;63.95;;
40314;SDS011;26021;45.640;11.302;2022-10-16T14:39:17;90.70;;;59.90;;
40314;SDS011;26021;45.640;11.302;2022-10-16T14:41:46;96.38;;;64.00;;
40314;SDS011;26021;45.640;11.302;2022-10-16T14:44:14;87.95;;;62.17;;
40314;SDS011;26021;45.640;11.302;2022-10-16T14:46:42;94.97;;;63.38;;
40314;SDS011;26021;45.640;11.302;2022-10-16T14:51:35;85.32;;;58.67;;
40314;SDS011;26021;45.640;11.302;2022-10-16T14:54:01;85.45;;;61.28;;
40314;SDS011;26021;45.640;11.302;2022-10-16T14:56:29;83.40;;;59.13;;
40314;SDS011;26021;45.640;11.302;2022-10-16T14:58:56;87.18;;;60.17;;
40314;SDS011;26021;45.640;11.302;2022-10-16T15:01:22;93.55;;;62.25;;
40314;SDS011;26021;45.640;11.302;2022-10-16T15:03:47;95.30;;;63.30;;
40314;SDS011;26021;45.640;11.302;2022-10-16T15:06:16;91.82;;;62.97;;
40314;SDS011;26021;45.640;11.302;2022-10-16T15:08:42;92.13;;;62.22;;
40314;SDS011;26021;45.640;11.302;2022-10-16T15:11:17;91.57;;;65.93;;
40314;SDS011;26021;45.640;11.302;2022-10-16T15:13:43;92.68;;;63.85;;
40314;SDS011;26021;45.640;11.302;2022-10-16T15:16:15;94.15;;;63.95;;
40314;SDS011;26021;45.640;11.302;2022-10-16T15:18:41;90.88;;;61.97;;
40314;SDS011;26021;45.640;11.302;2022-10-16T15:21:07;106.80;;;73.32;;
40314;SDS011;26021;45.640;11.302;2022-10-16T15:23:34;90.70;;;61.53;;
40314;SDS011;26021;45.640;11.302;2022-10-16T15:25:59;88.72;;;61.33;;
40314;SDS011;26021;45.640;11.302;2022-10-16T15:28:25;94.40;;;61.58;;
40314;SDS011;26021;45.640;11.302;2022-10-16T15:30:52;90.72;;;62.67;;
40314;SDS011;26021;45.640;11.302;2022-10-16T15:33:20;96.90;;;64.18;;
40314;SDS011;26021;45.640;11.302;2022-10-16T15:35:49;90.18;;;61.58;;
40314;SDS011;26021;45.640;11.302;2022-10-16T15:38:16;91.97;;;61.47;;
40314;SDS011;26021;45.640;11.302;2022-10-16T15:40:43;101.82;;;66.85;;
40314;SDS011;26021;45.640;11.302;2022-10-16T15:43:08;95.15;;;64.57;;
40314;SDS011;26021;45.640;11.302;2022-10-16T15:45:34;99.70;;;63.65;;
40314;SDS011;26021;45.640;11.302;2022-10-16T15:48:00;122.00;;;86.78;;
40314;SDS011;26021;45.640;11.302;2022-10-16T15:50:25;127.65;;;88.82;;
40314;SDS011;26021;45.640;11.302;2022-10-16T15:52:51;109.85;;;76.05;;
40314;SDS011;26021;45.640;11.302;2022-10-16T15:55:16;109.47;;;76.85;;
40314;SDS011;26021;45.640;11.302;2022-10-16T15:57:43;104.53;;;75.07;;
40314;SDS011;26021;45.640;11.302;2022-10-16T16:00:11;104.43;;;69.05;;
40314;SDS011;26021;45.640;11.302;2022-10-16T16:02:39;101.68;;;67.40;;
40314;SDS011;26021;45.640;11.302;2022-10-16T16:05:06;96.78;;;65.40;;
40314;SDS011;26021;45.640;11.302;2022-10-16T16:07:36;89.30;;;62.88;;
40314;SDS011;26021;45.640;11.302;2022-10-16T16:10:04;96.70;;;64.97;;
40314;SDS011;26021;45.640;11.302;2022-10-16T16:12:32;103.95;;;68.88;;
40314;SDS011;26021;45.640;11.302;2022-10-16T16:14:58;100.97;;;66.85;;
40314;SDS011;26021;45.640;11.302;2022-10-16T16:17:24;95.85;;;66.05;;
40314;SDS011;26021;45.640;11.302;2022-10-16T16:19:50;96.57;;;64.60;;
40314;SDS011;26021;45.640;11.302;2022-10-16T16:22:16;102.72;;;66.57;;